Time;durP1;ratioP1;P1;durP2;ratioP2;P2;SDS_P1;SDS_P2;PMS_P1;PMS_P2;Temp;Humidity;BMP_temperature;BMP_pressure;BME280_temperature;BME280_humidity;BME280_pressure;Samples;Min_cycle;Max_cycle;Signal;HPM_P1;HPM_P2
2023/05/04 00:00:14;;;;;;;4.57;2.78;;;;;;;;;;5006936;28;20445;-58
2023/05/04 00:02:40;;;;;;;6.65;3.10;;;;;;;;;;5007468;28;20124;-58
2023/05/04 00:05:07;;;;;;;4.32;2.30;;;;;;;;;;4998253;28;20042;-58
2023/05/04 00:07:33;;;;;;;4.20;2.78;;;;;;;;;;5002731;28;20042;-58
2023/05/04 00:09:59;;;;;;;7.72;2.65;;;;;;;;;;5010500;28;20034;-58
2023/05/04 00:12:26;;;;;;;4.57;2.55;;;;;;;;;;5008523;28;20042;-58
2023/05/04 00:14:52;;;;;;;3.88;2.53;;;;;;;;;;5010322;28;20046;-58
2023/05/04 00:17:18;;;;;;;4.90;2.88;;;;;;;;;;5005202;28;20172;-58
2023/05/04 00:19:45;;;;;;;4.75;2.70;;;;;;;;;;5001343;28;20890;-58
2023/05/04 00:22:11;;;;;;;5.45;2.45;;;;;;;;;;5011316;28;20050;-58
2023/05/04 00:24:37;;;;;;;5.25;3.03;;;;;;;;;;5009701;28;20104;-58
2023/05/04 00:27:03;;;;;;;3.90;2.30;;;;;;;;;;5012129;28;20068;-59
2023/05/04 00:29:30;;;;;;;5.72;3.42;;;;;;;;;;5012208;28;20073;-59
2023/05/04 00:31:56;;;;;;;4.22;2.78;;;;;;;;;;5008504;28;20046;-59
2023/05/04 00:34:22;;;;;;;8.27;3.08;;;;;;;;;;5008961;28;20050;-58
2023/05/04 00:36:48;;;;;;;4.80;2.55;;;;;;;;;;5012311;28;20971;-59
2023/05/04 00:39:14;;;;;;;6.78;2.85;;;;;;;;;;5010708;28;20469;-58
2023/05/04 00:41:40;;;;;;;7.93;2.85;;;;;;;;;;5043376;28;20053;-58
2023/05/04 00:44:07;;;;;;;5.10;2.90;;;;;;;;;;5008966;28;20065;-59
2023/05/04 00:46:33;;;;;;;7.82;4.13;;;;;;;;;;5010004;28;20038;-58
2023/05/04 00:49:01;;;;;;;9.05;2.63;;;;;;;;;;5009857;28;20038;-58
2023/05/04 00:51:27;;;;;;;5.63;2.50;;;;;;;;;;5012304;28;20050;-59
2023/05/04 00:53:54;;;;;;;3.97;2.42;;;;;;;;;;5014131;28;20454;-58
2023/05/04 00:56:23;;;;;;;4.05;2.60;;;;;;;;;;5012530;28;20060;-58
2023/05/04 00:58:53;;;;;;;6.07;2.83;;;;;;;;;;5015185;28;20049;-58
2023/05/04 01:01:19;;;;;;;5.93;2.97;;;;;;;;;;5008396;28;20471;-58
2023/05/04 01:03:45;;;;;;;4.50;2.88;;;;;;;;;;5010468;28;20042;-58
2023/05/04 01:06:26;;;;;;;6.13;2.90;;;;;;;;;;5009464;28;20091;-61
2023/05/04 01:08:59;;;;;;;4.32;3.28;;;;;;;;;;5011895;28;20053;-59
2023/05/04 01:11:27;;;;;;;4.65;2.65;;;;;;;;;;5011810;28;20042;-59
2023/05/04 01:13:53;;;;;;;3.88;2.90;;;;;;;;;;5011086;28;20964;-59
2023/05/04 01:16:20;;;;;;;5.32;3.75;;;;;;;;;;5008791;28;20125;-58
2023/05/04 01:18:46;;;;;;;4.50;3.10;;;;;;;;;;5026904;28;20466;-58
2023/05/04 01:21:12;;;;;;;5.90;3.03;;;;;;;;;;5010862;28;20064;-59
2023/05/04 01:23:38;;;;;;;5.55;2.67;;;;;;;;;;5009059;28;20101;-58
2023/05/04 01:26:04;;;;;;;5.82;3.15;;;;;;;;;;5010523;28;20516;-59
2023/05/04 01:28:52;;;;;;;4.47;3.72;;;;;;;;;;5010415;28;20050;-59
2023/05/04 01:31:20;;;;;;;5.50;3.25;;;;;;;;;;5003836;28;20066;-59
2023/05/04 01:33:47;;;;;;;5.25;3.00;;;;;;;;;;5007403;28;20556;-59
2023/05/04 01:36:13;;;;;;;4.10;3.00;;;;;;;;;;5011694;28;20042;-59
2023/05/04 01:38:41;;;;;;;4.75;3.08;;;;;;;;;;5007780;28;20042;-59
2023/05/04 01:41:07;;;;;;;4.97;3.20;;;;;;;;;;5040467;28;20057;-59
2023/05/04 01:43:33;;;;;;;4.53;3.17;;;;;;;;;;5008989;28;20057;-59
2023/05/04 01:45:59;;;;;;;7.00;2.80;;;;;;;;;;5007930;28;20305;-58
2023/05/04 01:48:25;;;;;;;7.47;3.67;;;;;;;;;;5007878;28;20133;-58
2023/05/04 01:50:51;;;;;;;5.20;2.88;;;;;;;;;;5008952;28;20153;-58
2023/05/04 01:53:17;;;;;;;4.88;2.90;;;;;;;;;;5039385;28;20073;-58
2023/05/04 01:55:44;;;;;;;4.90;2.80;;;;;;;;;;5010529;28;20042;-59
2023/05/04 01:58:10;;;;;;;5.60;3.33;;;;;;;;;;5009247;28;20031;-58
2023/05/04 02:00:36;;;;;;;6.13;3.53;;;;;;;;;;5007333;28;20065;-58
2023/05/04 02:03:02;;;;;;;5.68;3.33;;;;;;;;;;5009200;28;20034;-58
2023/05/04 02:05:28;;;;;;;7.65;4.20;;;;;;;;;;5010573;28;20566;-58
2023/05/04 02:07:54;;;;;;;5.95;3.50;;;;;;;;;;5011065;28;20045;-58
2023/05/04 02:10:20;;;;;;;5.28;3.45;;;;;;;;;;5010342;28;20049;-58
2023/05/04 02:12:46;;;;;;;7.07;2.97;;;;;;;;;;5027423;28;20042;-58
2023/05/04 02:15:12;;;;;;;5.88;3.70;;;;;;;;;;5006108;28;20698;-58
2023/05/04 02:17:39;;;;;;;4.18;2.90;;;;;;;;;;5005089;28;20053;-58
2023/05/04 02:20:05;;;;;;;5.47;3.75;;;;;;;;;;5012364;28;20094;-58
2023/05/04 02:22:31;;;;;;;4.97;3.63;;;;;;;;;;5005672;28;20042;-58
2023/05/04 02:24:57;;;;;;;8.35;3.40;;;;;;;;;;5022774;28;20108;-58
2023/05/04 02:27:23;;;;;;;4.72;3.28;;;;;;;;;;5007086;28;20041;-58
2023/05/04 02:29:49;;;;;;;14.13;4.82;;;;;;;;;;5007231;28;20121;-58
2023/05/04 02:32:16;;;;;;;5.45;3.67;;;;;;;;;;5006626;28;20108;-58
2023/05/04 02:34:42;;;;;;;6.90;4.35;;;;;;;;;;5007361;28;20128;-58
2023/05/04 02:37:08;;;;;;;5.90;4.05;;;;;;;;;;5008522;28;20041;-58
2023/05/04 02:39:34;;;;;;;4.68;3.13;;;;;;;;;;5007951;28;20045;-58
2023/05/04 02:42:00;;;;;;;10.40;6.10;;;;;;;;;;5008355;28;21390;-58
2023/05/04 02:44:26;;;;;;;6.55;3.20;;;;;;;;;;5003672;28;20520;-59
2023/05/04 02:46:52;;;;;;;4.32;3.00;;;;;;;;;;5007792;28;20045;-59
2023/05/04 02:49:18;;;;;;;7.35;4.18;;;;;;;;;;5006820;28;20057;-58
2023/05/04 02:51:46;;;;;;;5.03;2.88;;;;;;;;;;5021759;28;20049;-58
2023/05/04 02:54:12;;;;;;;6.80;3.65;;;;;;;;;;5008705;28;20854;-58
2023/05/04 02:56:38;;;;;;;5.38;3.40;;;;;;;;;;5007911;28;20046;-59
2023/05/04 02:59:04;;;;;;;5.70;3.60;;;;;;;;;;5008831;28;20050;-58
2023/05/04 03:01:30;;;;;;;6.63;4.22;;;;;;;;;;5004829;28;20065;-58
2023/05/04 03:03:56;;;;;;;4.80;3.38;;;;;;;;;;5022814;28;20108;-58
2023/05/04 03:06:22;;;;;;;6.57;3.67;;;;;;;;;;5009033;28;20059;-58
2023/05/04 03:08:48;;;;;;;8.77;3.60;;;;;;;;;;5007897;28;20054;-58
2023/05/04 03:11:15;;;;;;;5.15;3.83;;;;;;;;;;5003917;28;20046;-58
2023/05/04 03:13:41;;;;;;;4.45;3.05;;;;;;;;;;5003667;28;20038;-58
2023/05/04 03:16:07;;;;;;;5.00;3.20;;;;;;;;;;5010054;28;20179;-58
2023/05/04 03:18:33;;;;;;;7.57;4.05;;;;;;;;;;5012910;28;20512;-58
2023/05/04 03:20:59;;;;;;;5.32;3.78;;;;;;;;;;5042553;28;20042;-58
2023/05/04 03:23:26;;;;;;;5.05;3.40;;;;;;;;;;5009601;28;20085;-58
2023/05/04 03:25:52;;;;;;;6.57;3.67;;;;;;;;;;5008574;28;20125;-58
2023/05/04 03:28:18;;;;;;;5.72;3.63;;;;;;;;;;5009722;28;20042;-58
2023/05/04 03:30:44;;;;;;;5.57;3.63;;;;;;;;;;5010823;28;20041;-58
2023/05/04 03:33:10;;;;;;;5.85;3.67;;;;;;;;;;5009783;28;20052;-58
2023/05/04 03:35:36;;;;;;;5.93;3.80;;;;;;;;;;5011546;28;20109;-59
2023/05/04 03:38:02;;;;;;;6.57;3.45;;;;;;;;;;5011447;28;20056;-58
2023/05/04 03:40:28;;;;;;;5.53;3.90;;;;;;;;;;5009196;28;20082;-58
2023/05/04 03:42:54;;;;;;;8.18;4.07;;;;;;;;;;5042036;28;20046;-59
2023/05/04 03:45:22;;;;;;;5.72;3.60;;;;;;;;;;5010744;28;20049;-58
2023/05/04 03:47:48;;;;;;;9.70;4.13;;;;;;;;;;5008452;28;20090;-58
2023/05/04 03:50:14;;;;;;;7.35;4.13;;;;;;;;;;5007966;28;20147;-59
2023/05/04 03:52:40;;;;;;;10.20;4.38;;;;;;;;;;5008383;28;20049;-58
2023/05/04 03:55:07;;;;;;;9.55;4.38;;;;;;;;;;5014102;28;20524;-59
2023/05/04 03:57:33;;;;;;;9.20;3.95;;;;;;;;;;5011129;28;20041;-59
2023/05/04 03:59:59;;;;;;;6.00;3.42;;;;;;;;;;5006049;28;20516;-59
2023/05/04 04:02:25;;;;;;;5.70;4.00;;;;;;;;;;5009279;28;20507;-59
2023/05/04 04:04:51;;;;;;;6.38;3.78;;;;;;;;;;5003380;28;20578;-58
2023/05/04 04:07:17;;;;;;;7.70;3.72;;;;;;;;;;5010581;28;20080;-58
2023/05/04 04:09:43;;;;;;;5.40;3.60;;;;;;;;;;5010678;28;20066;-58
2023/05/04 04:12:10;;;;;;;7.28;4.18;;;;;;;;;;5011289;28;20046;-59
2023/05/04 04:14:36;;;;;;;4.85;3.72;;;;;;;;;;5005126;28;20041;-58
2023/05/04 04:17:02;;;;;;;6.90;3.67;;;;;;;;;;5008515;28;20046;-58
2023/05/04 04:19:28;;;;;;;5.68;4.22;;;;;;;;;;5006670;28;20092;-58
2023/05/04 04:21:54;;;;;;;8.90;4.00;;;;;;;;;;5012911;28;20513;-58
2023/05/04 04:24:20;;;;;;;6.30;3.63;;;;;;;;;;5012642;28;20042;-58
2023/05/04 04:26:46;;;;;;;7.15;4.25;;;;;;;;;;5011610;28;20057;-58
2023/05/04 04:29:12;;;;;;;7.25;3.85;;;;;;;;;;5009765;28;21074;-58
2023/05/04 04:31:39;;;;;;;6.18;4.25;;;;;;;;;;5004237;28;20053;-58
2023/05/04 04:34:05;;;;;;;10.02;4.22;;;;;;;;;;5010984;28;20420;-58
2023/05/04 04:36:31;;;;;;;6.18;4.28;;;;;;;;;;5009314;28;20074;-58
2023/05/04 04:38:57;;;;;;;6.68;3.45;;;;;;;;;;5008145;28;20082;-58
2023/05/04 04:41:23;;;;;;;6.47;3.75;;;;;;;;;;5013741;28;20192;-58
2023/05/04 04:43:50;;;;;;;7.13;4.88;;;;;;;;;;5012340;28;20215;-58
2023/05/04 04:46:16;;;;;;;6.40;4.28;;;;;;;;;;5010427;28;20045;-58
2023/05/04 04:48:42;;;;;;;7.82;4.93;;;;;;;;;;5008123;28;20045;-58
2023/05/04 04:51:11;;;;;;;6.70;4.18;;;;;;;;;;5010767;28;20042;-58
2023/05/04 04:53:38;;;;;;;6.05;3.35;;;;;;;;;;5009585;28;20042;-59
2023/05/04 04:56:06;;;;;;;7.43;5.07;;;;;;;;;;5006193;28;20566;-58
2023/05/04 04:58:32;;;;;;;6.38;3.80;;;;;;;;;;5008731;28;20046;-58
2023/05/04 05:00:59;;;;;;;6.70;3.70;;;;;;;;;;5011268;28;20998;-58
2023/05/04 05:03:25;;;;;;;8.32;3.83;;;;;;;;;;5010158;28;20343;-58
2023/05/04 05:05:51;;;;;;;7.97;4.28;;;;;;;;;;5011294;28;20119;-58
2023/05/04 05:08:17;;;;;;;8.52;4.18;;;;;;;;;;5009448;28;20046;-58
2023/05/04 05:10:43;;;;;;;7.30;3.67;;;;;;;;;;5007657;28;20038;-58
2023/05/04 05:13:09;;;;;;;5.93;4.00;;;;;;;;;;5014129;28;20133;-58
2023/05/04 05:15:35;;;;;;;6.55;4.57;;;;;;;;;;5030227;28;20054;-58
2023/05/04 05:18:01;;;;;;;7.30;3.95;;;;;;;;;;5010160;28;20645;-58
2023/05/04 05:20:28;;;;;;;12.85;5.93;;;;;;;;;;5010110;28;20053;-58
2023/05/04 05:22:54;;;;;;;6.85;4.13;;;;;;;;;;5007633;28;20042;-58
2023/05/04 05:25:20;;;;;;;10.05;4.28;;;;;;;;;;5010280;28;20050;-58
2023/05/04 05:27:46;;;;;;;6.82;3.90;;;;;;;;;;5011614;28;20046;-58
2023/05/04 05:30:12;;;;;;;5.53;3.85;;;;;;;;;;5011520;28;20612;-58
2023/05/04 05:32:38;;;;;;;6.72;4.18;;;;;;;;;;5004447;28;20081;-58
2023/05/04 05:35:05;;;;;;;5.70;4.32;;;;;;;;;;5010473;28;20046;-58
2023/05/04 05:37:31;;;;;;;7.68;4.30;;;;;;;;;;5010558;28;20516;-59
2023/05/04 05:39:57;;;;;;;8.68;4.43;;;;;;;;;;5011086;28;20165;-59
2023/05/04 05:42:23;;;;;;;6.80;3.78;;;;;;;;;;5010702;28;20042;-59
2023/05/04 05:44:50;;;;;;;8.90;4.95;;;;;;;;;;5011594;28;20058;-59
2023/05/04 05:47:16;;;;;;;6.50;3.70;;;;;;;;;;5006261;28;20119;-59
2023/05/04 05:49:42;;;;;;;6.50;4.28;;;;;;;;;;5012006;28;20451;-58
2023/05/04 05:52:08;;;;;;;8.80;4.30;;;;;;;;;;5023162;28;20038;-59
2023/05/04 05:54:34;;;;;;;6.82;3.80;;;;;;;;;;5008135;28;20105;-59
2023/05/04 05:57:01;;;;;;;9.00;5.22;;;;;;;;;;5006744;28;20713;-59
2023/05/04 05:59:27;;;;;;;6.95;4.47;;;;;;;;;;5021280;28;20164;-59
2023/05/04 06:01:53;;;;;;;10.18;4.50;;;;;;;;;;5013152;28;20468;-59
2023/05/04 06:04:19;;;;;;;5.97;4.28;;;;;;;;;;5007443;28;20053;-59
2023/05/04 06:06:45;;;;;;;5.40;4.43;;;;;;;;;;5007529;28;20619;-59
2023/05/04 06:09:12;;;;;;;8.55;4.32;;;;;;;;;;5003297;28;20424;-59
2023/05/04 06:11:38;;;;;;;6.88;4.47;;;;;;;;;;5010163;28;20273;-59
2023/05/04 06:14:04;;;;;;;7.47;4.63;;;;;;;;;;5013753;28;20045;-59
2023/05/04 06:16:30;;;;;;;5.70;3.83;;;;;;;;;;5029281;28;20069;-59
2023/05/04 06:18:56;;;;;;;12.32;5.15;;;;;;;;;;5012405;28;20501;-59
2023/05/04 06:21:22;;;;;;;6.40;3.67;;;;;;;;;;5012245;28;20050;-59
2023/05/04 06:23:48;;;;;;;9.45;4.95;;;;;;;;;;5007905;28;20053;-59
2023/05/04 06:26:14;;;;;;;8.98;4.95;;;;;;;;;;5012062;28;20886;-59
2023/05/04 06:28:40;;;;;;;10.60;5.28;;;;;;;;;;5011652;28;20575;-58
2023/05/04 06:31:07;;;;;;;7.45;4.72;;;;;;;;;;5006521;28;20045;-59
2023/05/04 06:33:33;;;;;;;7.05;3.95;;;;;;;;;;5012851;28;20054;-59
2023/05/04 06:35:59;;;;;;;6.65;3.78;;;;;;;;;;5014172;28;20535;-59
2023/05/04 06:38:25;;;;;;;7.47;4.53;;;;;;;;;;5014079;28;20510;-58
2023/05/04 06:40:51;;;;;;;8.45;4.43;;;;;;;;;;5029477;28;20038;-58
2023/05/04 06:43:17;;;;;;;7.30;3.85;;;;;;;;;;5013236;28;20187;-59
2023/05/04 06:45:44;;;;;;;9.00;4.82;;;;;;;;;;5014378;28;20588;-58
2023/05/04 06:48:10;;;;;;;5.38;3.75;;;;;;;;;;5014141;28;20557;-59
2023/05/04 06:50:37;;;;;;;7.32;4.60;;;;;;;;;;5013416;28;20038;-59
2023/05/04 06:53:03;;;;;;;7.47;4.15;;;;;;;;;;5015786;28;20050;-59
2023/05/04 06:55:30;;;;;;;4.90;3.72;;;;;;;;;;5006284;28;20045;-59
2023/05/04 06:57:56;;;;;;;5.40;3.70;;;;;;;;;;5006203;28;20515;-59
2023/05/04 07:00:22;;;;;;;7.05;4.15;;;;;;;;;;5014544;28;20049;-58
2023/05/04 07:02:48;;;;;;;5.85;3.70;;;;;;;;;;5012761;28;20054;-59
2023/05/04 07:05:15;;;;;;;6.97;4.38;;;;;;;;;;5012632;28;20042;-58
2023/05/04 07:07:41;;;;;;;6.53;4.60;;;;;;;;;;5013733;28;20046;-58
2023/05/04 07:10:07;;;;;;;6.45;3.80;;;;;;;;;;5014660;28;20042;-58
2023/05/04 07:12:33;;;;;;;6.15;4.05;;;;;;;;;;5012839;28;20065;-59
2023/05/04 07:14:59;;;;;;;4.68;3.38;;;;;;;;;;5013599;28;20046;-59
2023/05/04 07:17:25;;;;;;;5.65;3.42;;;;;;;;;;5014052;28;20147;-59
2023/05/04 07:19:52;;;;;;;6.20;3.85;;;;;;;;;;5013636;28;20062;-58
2023/05/04 07:22:19;;;;;;;8.73;4.15;;;;;;;;;;5013669;28;20049;-58
2023/05/04 07:24:45;;;;;;;7.07;4.20;;;;;;;;;;5014004;28;20041;-59
2023/05/04 07:27:12;;;;;;;6.65;4.22;;;;;;;;;;5013360;28;20046;-59
2023/05/04 07:29:38;;;;;;;5.93;3.90;;;;;;;;;;5013677;28;20865;-59
2023/05/04 07:32:04;;;;;;;5.20;3.70;;;;;;;;;;5014664;28;20046;-59
2023/05/04 07:34:30;;;;;;;6.47;3.72;;;;;;;;;;5013054;28;20038;-59
2023/05/04 07:36:56;;;;;;;6.43;4.45;;;;;;;;;;5013811;28;20998;-59
2023/05/04 07:39:22;;;;;;;6.50;4.65;;;;;;;;;;5013083;28;20046;-59
2023/05/04 07:41:50;;;;;;;9.02;4.65;;;;;;;;;;5014207;28;20057;-59
2023/05/04 07:44:16;;;;;;;7.57;4.30;;;;;;;;;;5013554;28;20064;-59
2023/05/04 07:46:42;;;;;;;7.00;4.28;;;;;;;;;;5012770;28;20038;-59
2023/05/04 07:49:08;;;;;;;6.63;3.95;;;;;;;;;;5013125;28;20046;-59
2023/05/04 07:51:35;;;;;;;7.13;4.63;;;;;;;;;;5013977;28;20112;-59
2023/05/04 07:54:01;;;;;;;7.32;4.25;;;;;;;;;;5013195;28;20072;-59
2023/05/04 07:56:27;;;;;;;10.18;5.05;;;;;;;;;;5012001;28;20564;-59
2023/05/04 07:58:53;;;;;;;5.35;3.72;;;;;;;;;;5012887;28;20042;-59
2023/05/04 08:01:19;;;;;;;6.40;3.72;;;;;;;;;;5012219;28;20312;-59
2023/05/04 08:03:45;;;;;;;5.18;4.03;;;;;;;;;;5010000;28;20050;-59
2023/05/04 08:06:12;;;;;;;6.38;3.70;;;;;;;;;;5011121;28;20552;-59
2023/05/04 08:08:38;;;;;;;6.25;4.13;;;;;;;;;;5011846;28;20038;-59
2023/05/04 08:11:04;;;;;;;6.50;4.18;;;;;;;;;;5012198;28;20610;-59
2023/05/04 08:13:30;;;;;;;9.30;4.35;;;;;;;;;;5028849;28;20594;-59
2023/05/04 08:16:00;;;;;;;6.18;4.38;;;;;;;;;;5011896;28;20104;-59
2023/05/04 08:18:27;;;;;;;8.07;5.28;;;;;;;;;;5004691;28;20169;-58
2023/05/04 08:20:53;;;;;;;8.25;3.95;;;;;;;;;;5011565;28;20128;-59
2023/05/04 08:23:19;;;;;;;6.43;4.05;;;;;;;;;;5013114;28;20049;-59
2023/05/04 08:25:45;;;;;;;8.98;4.28;;;;;;;;;;5013141;28;20049;-59
2023/05/04 08:28:11;;;;;;;5.85;3.65;;;;;;;;;;5032463;28;20489;-59
2023/05/04 08:30:37;;;;;;;5.25;3.72;;;;;;;;;;5016025;28;20131;-59
2023/05/04 08:33:04;;;;;;;7.43;4.53;;;;;;;;;;5015455;28;20089;-59
2023/05/04 08:35:30;;;;;;;7.00;4.35;;;;;;;;;;5009587;28;20836;-59
2023/05/04 08:37:56;;;;;;;5.55;4.15;;;;;;;;;;5016931;28;20046;-59
2023/05/04 08:40:23;;;;;;;6.95;4.88;;;;;;;;;;5016951;28;20614;-59
2023/05/04 08:42:52;;;;;;;7.88;4.20;;;;;;;;;;5016498;28;20050;-58
2023/05/04 08:45:18;;;;;;;7.63;4.68;;;;;;;;;;5016422;28;20645;-59
2023/05/04 08:47:44;;;;;;;5.53;4.00;;;;;;;;;;5015209;28;20088;-59
2023/05/04 08:50:11;;;;;;;7.53;4.57;;;;;;;;;;5015438;28;20586;-58
2023/05/04 08:52:38;;;;;;;6.70;3.67;;;;;;;;;;5014926;28;20072;-58
2023/05/04 08:55:04;;;;;;;5.88;4.43;;;;;;;;;;5013938;28;20038;-59
2023/05/04 08:57:30;;;;;;;10.27;4.78;;;;;;;;;;5014957;28;20413;-60
2023/05/04 08:59:56;;;;;;;7.82;4.40;;;;;;;;;;5014263;28;20144;-59
2023/05/04 09:02:23;;;;;;;4.05;3.03;;;;;;;;;;5014538;28;20155;-59
2023/05/04 09:04:52;;;;;;;6.18;3.70;;;;;;;;;;5016000;28;20082;-59
2023/05/04 09:07:19;;;;;;;4.82;3.47;;;;;;;;;;5046686;28;20073;-59
2023/05/04 09:09:46;;;;;;;5.22;3.70;;;;;;;;;;5015541;28;20041;-59
2023/05/04 09:12:12;;;;;;;6.45;4.25;;;;;;;;;;5016021;28;20140;-58
2023/05/04 09:14:39;;;;;;;11.77;4.13;;;;;;;;;;5015522;28;20121;-58
2023/05/04 09:17:12;;;;;;;7.03;4.00;;;;;;;;;;5031760;28;20050;-58
2023/05/04 09:19:42;;;;;;;4.93;3.75;;;;;;;;;;5014843;28;20137;-58
2023/05/04 09:22:18;;;;;;;4.18;3.40;;;;;;;;;;5015739;28;20073;-58
2023/05/04 09:24:45;;;;;;;6.05;3.75;;;;;;;;;;5015422;28;20057;-59
2023/05/04 09:27:12;;;;;;;10.30;4.40;;;;;;;;;;5014420;28;20932;-59
2023/05/04 09:29:39;;;;;;;5.38;3.85;;;;;;;;;;5015562;28;20522;-58
2023/05/04 09:32:06;;;;;;;7.90;3.78;;;;;;;;;;5013111;28;20042;-59
2023/05/04 09:34:33;;;;;;;6.55;3.60;;;;;;;;;;5015328;28;20104;-58
2023/05/04 09:37:00;;;;;;;5.95;3.72;;;;;;;;;;5013349;28;20046;-58
2023/05/04 09:39:26;;;;;;;5.18;3.22;;;;;;;;;;5014460;28;20085;-58
2023/05/04 09:41:53;;;;;;;12.30;3.75;;;;;;;;;;5013995;28;20540;-58
2023/05/04 09:44:22;;;;;;;5.75;3.10;;;;;;;;;;5014781;28;20510;-58
2023/05/04 09:46:56;;;;;;;14.40;4.13;;;;;;;;;;5013669;28;20554;-58
2023/05/04 09:49:31;;;;;;;7.20;4.40;;;;;;;;;;5014409;28;20133;-58
2023/05/04 09:52:01;;;;;;;5.80;3.05;;;;;;;;;;5014862;28;20105;-58
2023/05/04 09:54:33;;;;;;;6.65;3.50;;;;;;;;;;5014094;28;20046;-59
2023/05/04 09:57:10;;;;;;;4.47;3.15;;;;;;;;;;5015573;28;20042;-58
2023/05/04 09:59:37;;;;;;;4.28;2.70;;;;;;;;;;5012731;28;20068;-58
2023/05/04 10:02:04;;;;;;;6.05;3.20;;;;;;;;;;5029151;28;20087;-59
2023/05/04 10:04:32;;;;;;;5.10;3.58;;;;;;;;;;5013346;28;20042;-58
2023/05/04 10:06:59;;;;;;;5.30;3.60;;;;;;;;;;5013929;28;20045;-58
2023/05/04 10:09:28;;;;;;;4.75;3.00;;;;;;;;;;5013835;28;20529;-59
2023/05/04 10:11:55;;;;;;;6.13;3.65;;;;;;;;;;5012203;28;20049;-59
2023/05/04 10:14:21;;;;;;;4.80;3.38;;;;;;;;;;5014596;28;20037;-59
2023/05/04 10:16:56;;;;;;;5.82;3.00;;;;;;;;;;5016135;28;20049;-59
2023/05/04 10:19:32;;;;;;;5.50;3.20;;;;;;;;;;5015883;28;20103;-58
2023/05/04 10:22:13;;;;;;;4.30;3.10;;;;;;;;;;5015822;28;20542;-58
2023/05/04 10:24:54;;;;;;;4.85;3.03;;;;;;;;;;5015444;28;20034;-58
2023/05/04 10:27:40;;;;;;;7.53;3.17;;;;;;;;;;5012764;28;20491;-58
2023/05/04 10:30:07;;;;;;;4.90;2.83;;;;;;;;;;5014819;28;20050;-59
2023/05/04 10:32:38;;;;;;;6.55;2.95;;;;;;;;;;5013250;28;20038;-59
2023/05/04 10:35:05;;;;;;;3.30;2.50;;;;;;;;;;5014093;28;20041;-59
2023/05/04 10:37:32;;;;;;;4.35;2.70;;;;;;;;;;5014085;28;20042;-59
2023/05/04 10:39:58;;;;;;;4.75;2.80;;;;;;;;;;5045125;28;20052;-59
2023/05/04 10:42:24;;;;;;;9.57;3.10;;;;;;;;;;5013718;28;20100;-59
2023/05/04 10:44:54;;;;;;;5.05;3.00;;;;;;;;;;5014124;28;20500;-59
2023/05/04 10:47:28;;;;;;;3.95;3.08;;;;;;;;;;5014654;28;20100;-59
2023/05/04 10:50:13;;;;;;;5.10;2.72;;;;;;;;;;5012739;28;20054;-59
2023/05/04 10:52:46;;;;;;;3.85;2.75;;;;;;;;;;5014136;28;20042;-59
2023/05/04 10:55:12;;;;;;;4.72;2.88;;;;;;;;;;5014065;28;20115;-59
2023/05/04 10:57:50;;;;;;;4.68;2.88;;;;;;;;;;5014400;28;20046;-58
2023/05/04 11:00:17;;;;;;;4.07;2.78;;;;;;;;;;5013316;28;20049;-59
2023/05/04 11:02:43;;;;;;;5.53;3.30;;;;;;;;;;5013733;28;20038;-59
2023/05/04 11:05:16;;;;;;;4.60;3.08;;;;;;;;;;5014003;28;20046;-59
2023/05/04 11:07:42;;;;;;;4.85;3.38;;;;;;;;;;5014146;28;20042;-58
2023/05/04 11:10:20;;;;;;;5.45;3.03;;;;;;;;;;5030145;28;20762;-59
2023/05/04 11:12:46;;;;;;;3.55;2.92;;;;;;;;;;5013432;28;20507;-58
2023/05/04 11:15:12;;;;;;;3.85;3.00;;;;;;;;;;5014365;28;20042;-59
2023/05/04 11:17:45;;;;;;;6.05;3.20;;;;;;;;;;5013744;28;20534;-58
2023/05/04 11:20:11;;;;;;;6.35;2.95;;;;;;;;;;5014007;28;20531;-59
2023/05/04 11:22:37;;;;;;;4.57;2.65;;;;;;;;;;5013708;28;20511;-58
2023/05/04 11:25:04;;;;;;;4.65;2.80;;;;;;;;;;5015193;28;20037;-58
2023/05/04 11:27:30;;;;;;;6.90;3.28;;;;;;;;;;5014327;28;20041;-59
2023/05/04 11:30:00;;;;;;;6.00;3.03;;;;;;;;;;5015202;28;20042;-59
2023/05/04 11:32:35;;;;;;;4.05;2.50;;;;;;;;;;5012937;28;20529;-58
2023/05/04 11:35:01;;;;;;;5.28;3.15;;;;;;;;;;5015192;28;20041;-58
2023/05/04 11:37:28;;;;;;;3.55;2.90;;;;;;;;;;5013357;28;20547;-58
2023/05/04 11:39:55;;;;;;;5.40;3.00;;;;;;;;;;5029052;28;20046;-59
2023/05/04 11:42:21;;;;;;;4.78;2.58;;;;;;;;;;5011736;28;20046;-58
2023/05/04 11:44:48;;;;;;;5.07;3.63;;;;;;;;;;5011910;28;20062;-59
2023/05/04 11:47:14;;;;;;;8.77;4.07;;;;;;;;;;5012578;28;20041;-58
2023/05/04 11:49:41;;;;;;;7.10;3.33;;;;;;;;;;5013907;28;20935;-58
2023/05/04 11:52:07;;;;;;;6.45;3.08;;;;;;;;;;5011608;28;20049;-58
2023/05/04 11:54:33;;;;;;;5.35;2.90;;;;;;;;;;5012722;28;20042;-59
2023/05/04 11:57:03;;;;;;;4.90;3.60;;;;;;;;;;5010345;28;20550;-59
2023/05/04 11:59:29;;;;;;;7.28;3.40;;;;;;;;;;5012782;28;20042;-58
2023/05/04 12:01:56;;;;;;;4.75;2.70;;;;;;;;;;5044081;28;20042;-58
2023/05/04 12:04:22;;;;;;;5.07;3.22;;;;;;;;;;5016342;28;20045;-58
2023/05/04 12:06:49;;;;;;;5.90;3.00;;;;;;;;;;5016286;28;20050;-58
2023/05/04 12:09:15;;;;;;;6.22;3.88;;;;;;;;;;5017029;28;20169;-58
2023/05/04 12:11:42;;;;;;;4.55;3.13;;;;;;;;;;5016844;28;20152;-59
2023/05/04 12:14:09;;;;;;;9.20;4.00;;;;;;;;;;5014930;28;20852;-59
2023/05/04 12:16:35;;;;;;;8.60;3.80;;;;;;;;;;5015266;28;20112;-59
2023/05/04 12:19:03;;;;;;;8.02;3.75;;;;;;;;;;5016525;28;20053;-59
2023/05/04 12:21:30;;;;;;;5.45;3.28;;;;;;;;;;5016633;28;20068;-59
2023/05/04 12:23:59;;;;;;;7.20;3.88;;;;;;;;;;5015836;28;20053;-59
2023/05/04 12:26:25;;;;;;;4.63;2.67;;;;;;;;;;5015943;28;20042;-59
2023/05/04 12:28:52;;;;;;;4.53;3.05;;;;;;;;;;5016258;28;20510;-59
2023/05/04 12:31:18;;;;;;;6.15;3.40;;;;;;;;;;5015865;28;20077;-59
2023/05/04 12:33:44;;;;;;;5.72;2.85;;;;;;;;;;5016677;28;20589;-59
2023/05/04 12:36:10;;;;;;;4.45;2.80;;;;;;;;;;5016737;28;20042;-59
2023/05/04 12:38:37;;;;;;;6.22;3.25;;;;;;;;;;5016642;28;20116;-58
2023/05/04 12:41:03;;;;;;;3.35;2.35;;;;;;;;;;5016866;28;20038;-59
2023/05/04 12:43:32;;;;;;;4.18;2.90;;;;;;;;;;5014840;28;20044;-58
2023/05/04 12:45:58;;;;;;;4.60;2.67;;;;;;;;;;5016649;28;20056;-59
2023/05/04 12:48:27;;;;;;;4.38;2.83;;;;;;;;;;5016578;28;20108;-58
2023/05/04 12:50:53;;;;;;;5.88;2.60;;;;;;;;;;5015907;28;20879;-59
2023/05/04 12:53:21;;;;;;;4.55;2.70;;;;;;;;;;5013742;28;20048;-58
2023/05/04 12:55:47;;;;;;;4.97;2.92;;;;;;;;;;5015012;28;20120;-58
2023/05/04 12:58:13;;;;;;;3.63;2.92;;;;;;;;;;5014818;28;20053;-59
2023/05/04 13:00:40;;;;;;;4.38;2.85;;;;;;;;;;5014296;28;20073;-59
2023/05/04 13:03:06;;;;;;;3.50;2.63;;;;;;;;;;5014224;28;20547;-58
2023/05/04 13:05:32;;;;;;;3.50;2.38;;;;;;;;;;5016344;28;20132;-59
2023/05/04 13:07:58;;;;;;;3.65;2.63;;;;;;;;;;5016267;28;20050;-59
2023/05/04 13:10:24;;;;;;;6.30;2.78;;;;;;;;;;5016076;28;20181;-59
2023/05/04 13:12:51;;;;;;;5.32;2.90;;;;;;;;;;5015222;28;20050;-58
2023/05/04 13:15:17;;;;;;;6.65;3.40;;;;;;;;;;5015554;28;20109;-58
2023/05/04 13:17:43;;;;;;;4.18;2.38;;;;;;;;;;5014858;28;20595;-58
2023/05/04 13:20:10;;;;;;;3.72;2.90;;;;;;;;;;5015502;28;20042;-58
2023/05/04 13:22:36;;;;;;;4.63;2.50;;;;;;;;;;5015502;28;20089;-58
2023/05/04 13:25:02;;;;;;;5.28;2.70;;;;;;;;;;5016613;28;20046;-58
2023/05/04 13:27:29;;;;;;;3.88;2.20;;;;;;;;;;5015743;28;20582;-58
2023/05/04 13:29:57;;;;;;;3.58;2.45;;;;;;;;;;5015912;28;20053;-58
2023/05/04 13:32:26;;;;;;;4.68;2.15;;;;;;;;;;5014195;28;20432;-58
2023/05/04 13:34:52;;;;;;;3.05;2.08;;;;;;;;;;5014211;28;20045;-58
2023/05/04 13:37:19;;;;;;;6.35;2.88;;;;;;;;;;5015910;28;20109;-58
2023/05/04 13:39:45;;;;;;;4.68;2.50;;;;;;;;;;5013422;28;20042;-57
2023/05/04 13:42:12;;;;;;;3.22;2.28;;;;;;;;;;5029953;28;20052;-58
2023/05/04 13:44:43;;;;;;;3.53;2.40;;;;;;;;;;5013823;28;20086;-58
2023/05/04 13:47:10;;;;;;;2.95;1.92;;;;;;;;;;5014570;28;20173;-58
2023/05/04 13:49:36;;;;;;;4.13;2.67;;;;;;;;;;5013090;28;20046;-57
2023/05/04 13:52:02;;;;;;;5.20;2.50;;;;;;;;;;5014391;28;20453;-58
2023/05/04 13:54:28;;;;;;;4.13;2.10;;;;;;;;;;5014370;28;20061;-58
2023/05/04 13:56:54;;;;;;;4.40;2.05;;;;;;;;;;5013415;28;20085;-58
2023/05/04 13:59:20;;;;;;;3.40;2.08;;;;;;;;;;5013977;28;20046;-58
2023/05/04 14:01:46;;;;;;;4.78;2.03;;;;;;;;;;5013726;28;21005;-58
2023/05/04 14:04:12;;;;;;;5.22;2.80;;;;;;;;;;5014040;28;20091;-58
2023/05/04 14:06:39;;;;;;;5.32;2.47;;;;;;;;;;5015510;28;20046;-58
2023/05/04 14:09:05;;;;;;;3.85;2.10;;;;;;;;;;5012865;28;20045;-58
2023/05/04 14:11:31;;;;;;;3.97;2.08;;;;;;;;;;5015076;28;20037;-58
2023/05/04 14:13:57;;;;;;;4.03;1.77;;;;;;;;;;5044614;28;20045;-58
2023/05/04 14:16:23;;;;;;;3.88;2.10;;;;;;;;;;5014819;28;20101;-58
2023/05/04 14:18:49;;;;;;;3.63;1.90;;;;;;;;;;5014561;28;20097;-58
2023/05/04 14:21:15;;;;;;;4.97;2.10;;;;;;;;;;5014532;28;20042;-58
2023/05/04 14:23:43;;;;;;;3.17;2.30;;;;;;;;;;5013553;28;20041;-58
2023/05/04 14:26:10;;;;;;;3.40;1.85;;;;;;;;;;5013821;28;20811;-59
2023/05/04 14:28:36;;;;;;;4.65;2.08;;;;;;;;;;5013091;28;20053;-59
2023/05/04 14:31:09;;;;;;;3.25;2.00;;;;;;;;;;5013185;28;20038;-58
2023/05/04 14:33:35;;;;;;;2.65;2.00;;;;;;;;;;5014552;28;20204;-58
2023/05/04 14:36:02;;;;;;;2.88;2.50;;;;;;;;;;5016187;28;20117;-59
2023/05/04 14:38:28;;;;;;;5.18;1.85;;;;;;;;;;5007822;28;20093;-58
2023/05/04 14:40:54;;;;;;;3.33;1.70;;;;;;;;;;5044195;28;21064;-58